sensor_id;sensor_type;location;lat;lon;timestamp;P1;durP1;ratioP1;P2;durP2;ratioP2
20810;SDS011;10566;52.928;10.522;2022-10-16T00:00:45;6.10;;;3.00;;
20810;SDS011;10566;52.928;10.522;2022-10-16T00:03:11;9.43;;;3.90;;
20810;SDS011;10566;52.928;10.522;2022-10-16T00:05:38;6.53;;;2.90;;
20810;SDS011;10566;52.928;10.522;2022-10-16T00:08:04;5.00;;;1.90;;
20810;SDS011;10566;52.928;10.522;2022-10-16T00:10:30;5.67;;;1.83;;
20810;SDS011;10566;52.928;10.522;2022-10-16T00:12:56;3.80;;;1.50;;
20810;SDS011;10566;52.928;10.522;2022-10-16T00:15:22;5.27;;;1.70;;
20810;SDS011;10566;52.928;10.522;2022-10-16T00:17:48;4.90;;;1.63;;
20810;SDS011;10566;52.928;10.522;2022-10-16T00:20:14;3.93;;;1.80;;
20810;SDS011;10566;52.928;10.522;2022-10-16T00:22:40;3.80;;;1.60;;
20810;SDS011;10566;52.928;10.522;2022-10-16T00:25:06;5.37;;;1.70;;
20810;SDS011;10566;52.928;10.522;2022-10-16T00:27:32;4.90;;;1.67;;
20810;SDS011;10566;52.928;10.522;2022-10-16T00:29:58;4.97;;;1.67;;
20810;SDS011;10566;52.928;10.522;2022-10-16T00:32:24;6.03;;;1.70;;
20810;SDS011;10566;52.928;10.522;2022-10-16T00:34:50;6.30;;;1.90;;
20810;SDS011;10566;52.928;10.522;2022-10-16T00:37:19;6.13;;;1.60;;
20810;SDS011;10566;52.928;10.522;2022-10-16T00:39:45;3.40;;;1.60;;
20810;SDS011;10566;52.928;10.522;2022-10-16T00:42:15;4.67;;;1.40;;
20810;SDS011;10566;52.928;10.522;2022-10-16T00:44:43;5.70;;;1.60;;
20810;SDS011;10566;52.928;10.522;2022-10-16T00:47:09;6.13;;;1.50;;
20810;SDS011;10566;52.928;10.522;2022-10-16T00:49:37;5.73;;;1.60;;
20810;SDS011;10566;52.928;10.522;2022-10-16T00:52:04;3.63;;;1.50;;
20810;SDS011;10566;52.928;10.522;2022-10-16T00:54:31;5.30;;;1.50;;
20810;SDS011;10566;52.928;10.522;2022-10-16T00:56:59;6.20;;;1.47;;
20810;SDS011;10566;52.928;10.522;2022-10-16T00:59:30;7.97;;;2.17;;
20810;SDS011;10566;52.928;10.522;2022-10-16T01:01:57;4.37;;;1.70;;
20810;SDS011;10566;52.928;10.522;2022-10-16T01:04:23;9.53;;;1.80;;
20810;SDS011;10566;52.928;10.522;2022-10-16T01:09:27;4.40;;;1.50;;
20810;SDS011;10566;52.928;10.522;2022-10-16T01:12:10;6.27;;;1.40;;
20810;SDS011;10566;52.928;10.522;2022-10-16T01:14:46;4.50;;;1.53;;
20810;SDS011;10566;52.928;10.522;2022-10-16T01:17:21;7.63;;;1.80;;
20810;SDS011;10566;52.928;10.522;2022-10-16T01:20:00;4.70;;;1.60;;
20810;SDS011;10566;52.928;10.522;2022-10-16T01:25:16;6.50;;;1.87;;
20810;SDS011;10566;52.928;10.522;2022-10-16T01:27:46;5.90;;;2.20;;
20810;SDS011;10566;52.928;10.522;2022-10-16T01:30:15;6.83;;;3.07;;
20810;SDS011;10566;52.928;10.522;2022-10-16T01:32:47;4.40;;;1.80;;
20810;SDS011;10566;52.928;10.522;2022-10-16T01:35:19;5.97;;;1.30;;
20810;SDS011;10566;52.928;10.522;2022-10-16T01:40:14;5.87;;;1.90;;
20810;SDS011;10566;52.928;10.522;2022-10-16T01:42:53;4.67;;;1.50;;
20810;SDS011;10566;52.928;10.522;2022-10-16T01:45:21;6.47;;;1.40;;
20810;SDS011;10566;52.928;10.522;2022-10-16T01:47:47;3.80;;;1.40;;
20810;SDS011;10566;52.928;10.522;2022-10-16T01:50:14;7.07;;;1.57;;
20810;SDS011;10566;52.928;10.522;2022-10-16T01:52:42;6.60;;;1.50;;
20810;SDS011;10566;52.928;10.522;2022-10-16T01:55:09;4.40;;;1.53;;
20810;SDS011;10566;52.928;10.522;2022-10-16T01:57:36;6.00;;;1.30;;
20810;SDS011;10566;52.928;10.522;2022-10-16T02:00:07;5.43;;;1.20;;
20810;SDS011;10566;52.928;10.522;2022-10-16T02:02:34;5.03;;;1.40;;
20810;SDS011;10566;52.928;10.522;2022-10-16T02:07:38;3.33;;;1.07;;
20810;SDS011;10566;52.928;10.522;2022-10-16T02:10:07;4.87;;;1.10;;
20810;SDS011;10566;52.928;10.522;2022-10-16T02:12:33;6.77;;;1.20;;
20810;SDS011;10566;52.928;10.522;2022-10-16T02:14:59;5.57;;;1.47;;
20810;SDS011;10566;52.928;10.522;2022-10-16T02:17:25;6.47;;;1.23;;
20810;SDS011;10566;52.928;10.522;2022-10-16T02:19:52;10.93;;;1.30;;
20810;SDS011;10566;52.928;10.522;2022-10-16T02:22:24;4.50;;;1.20;;
20810;SDS011;10566;52.928;10.522;2022-10-16T02:25:06;6.87;;;1.43;;
20810;SDS011;10566;52.928;10.522;2022-10-16T02:27:34;4.07;;;1.20;;
20810;SDS011;10566;52.928;10.522;2022-10-16T02:30:04;6.50;;;1.53;;
20810;SDS011;10566;52.928;10.522;2022-10-16T02:32:33;3.60;;;1.20;;
20810;SDS011;10566;52.928;10.522;2022-10-16T02:35:00;5.13;;;1.10;;
20810;SDS011;10566;52.928;10.522;2022-10-16T02:37:27;4.23;;;1.17;;
20810;SDS011;10566;52.928;10.522;2022-10-16T02:39:54;3.40;;;1.03;;
20810;SDS011;10566;52.928;10.522;2022-10-16T02:42:20;6.00;;;1.20;;
20810;SDS011;10566;52.928;10.522;2022-10-16T02:44:46;3.50;;;1.00;;
20810;SDS011;10566;52.928;10.522;2022-10-16T02:47:12;4.40;;;1.20;;
20810;SDS011;10566;52.928;10.522;2022-10-16T02:49:38;6.07;;;1.20;;
20810;SDS011;10566;52.928;10.522;2022-10-16T02:52:04;3.00;;;1.23;;
20810;SDS011;10566;52.928;10.522;2022-10-16T02:54:30;4.03;;;1.40;;
20810;SDS011;10566;52.928;10.522;2022-10-16T02:56:56;8.73;;;1.40;;
20810;SDS011;10566;52.928;10.522;2022-10-16T02:59:22;6.17;;;1.20;;
20810;SDS011;10566;52.928;10.522;2022-10-16T03:01:48;4.43;;;1.30;;
20810;SDS011;10566;52.928;10.522;2022-10-16T03:04:14;4.77;;;1.37;;
20810;SDS011;10566;52.928;10.522;2022-10-16T03:06:40;5.00;;;1.30;;
20810;SDS011;10566;52.928;10.522;2022-10-16T03:09:06;3.63;;;1.40;;
20810;SDS011;10566;52.928;10.522;2022-10-16T03:11:32;4.20;;;1.33;;
20810;SDS011;10566;52.928;10.522;2022-10-16T03:13:58;3.47;;;1.63;;
20810;SDS011;10566;52.928;10.522;2022-10-16T03:16:25;5.43;;;1.40;;
20810;SDS011;10566;52.928;10.522;2022-10-16T03:18:51;6.50;;;1.57;;
20810;SDS011;10566;52.928;10.522;2022-10-16T03:21:17;4.67;;;1.50;;
20810;SDS011;10566;52.928;10.522;2022-10-16T03:23:43;6.37;;;1.50;;
20810;SDS011;10566;52.928;10.522;2022-10-16T03:26:09;5.83;;;1.60;;
20810;SDS011;10566;52.928;10.522;2022-10-16T03:28:35;4.47;;;1.70;;
20810;SDS011;10566;52.928;10.522;2022-10-16T03:31:01;6.87;;;1.60;;
20810;SDS011;10566;52.928;10.522;2022-10-16T03:33:27;5.37;;;1.63;;
20810;SDS011;10566;52.928;10.522;2022-10-16T03:35:53;9.20;;;1.73;;
20810;SDS011;10566;52.928;10.522;2022-10-16T03:38:20;5.60;;;1.57;;
20810;SDS011;10566;52.928;10.522;2022-10-16T03:40:46;5.23;;;1.63;;
20810;SDS011;10566;52.928;10.522;2022-10-16T03:43:12;6.83;;;1.57;;
20810;SDS011;10566;52.928;10.522;2022-10-16T03:45:38;5.50;;;1.50;;
20810;SDS011;10566;52.928;10.522;2022-10-16T03:48:05;5.83;;;1.50;;
20810;SDS011;10566;52.928;10.522;2022-10-16T03:50:31;6.30;;;1.57;;
20810;SDS011;10566;52.928;10.522;2022-10-16T03:52:57;4.63;;;1.57;;
20810;SDS011;10566;52.928;10.522;2022-10-16T03:55:23;9.33;;;1.83;;
20810;SDS011;10566;52.928;10.522;2022-10-16T03:57:49;10.43;;;2.10;;
20810;SDS011;10566;52.928;10.522;2022-10-16T04:00:15;9.53;;;2.03;;
20810;SDS011;10566;52.928;10.522;2022-10-16T04:02:41;5.20;;;1.90;;
20810;SDS011;10566;52.928;10.522;2022-10-16T04:05:07;5.90;;;1.83;;
20810;SDS011;10566;52.928;10.522;2022-10-16T04:07:33;6.73;;;1.87;;
20810;SDS011;10566;52.928;10.522;2022-10-16T04:09:59;6.80;;;2.00;;
20810;SDS011;10566;52.928;10.522;2022-10-16T04:12:25;5.53;;;1.80;;
20810;SDS011;10566;52.928;10.522;2022-10-16T04:14:51;5.47;;;1.80;;
20810;SDS011;10566;52.928;10.522;2022-10-16T04:17:17;4.90;;;2.00;;
20810;SDS011;10566;52.928;10.522;2022-10-16T04:19:43;10.73;;;2.30;;
20810;SDS011;10566;52.928;10.522;2022-10-16T04:22:09;5.23;;;2.20;;
20810;SDS011;10566;52.928;10.522;2022-10-16T04:24:35;6.03;;;2.23;;
20810;SDS011;10566;52.928;10.522;2022-10-16T04:27:01;6.73;;;2.40;;
20810;SDS011;10566;52.928;10.522;2022-10-16T04:29:27;7.20;;;2.23;;
20810;SDS011;10566;52.928;10.522;2022-10-16T04:31:53;6.70;;;2.30;;
20810;SDS011;10566;52.928;10.522;2022-10-16T04:34:19;5.30;;;2.10;;
20810;SDS011;10566;52.928;10.522;2022-10-16T04:36:48;5.83;;;2.20;;
20810;SDS011;10566;52.928;10.522;2022-10-16T04:39:15;7.50;;;2.00;;
20810;SDS011;10566;52.928;10.522;2022-10-16T04:41:41;5.53;;;2.17;;
20810;SDS011;10566;52.928;10.522;2022-10-16T04:44:07;7.37;;;2.10;;
20810;SDS011;10566;52.928;10.522;2022-10-16T04:46:33;7.90;;;2.10;;
20810;SDS011;10566;52.928;10.522;2022-10-16T04:48:59;7.47;;;2.30;;
20810;SDS011;10566;52.928;10.522;2022-10-16T04:51:25;5.60;;;2.07;;
20810;SDS011;10566;52.928;10.522;2022-10-16T04:53:52;5.43;;;1.83;;
20810;SDS011;10566;52.928;10.522;2022-10-16T04:56:19;10.93;;;2.00;;
20810;SDS011;10566;52.928;10.522;2022-10-16T04:58:46;7.97;;;2.23;;
20810;SDS011;10566;52.928;10.522;2022-10-16T05:01:12;11.33;;;2.00;;
20810;SDS011;10566;52.928;10.522;2022-10-16T05:03:38;4.87;;;1.80;;
20810;SDS011;10566;52.928;10.522;2022-10-16T05:06:07;6.27;;;1.70;;
20810;SDS011;10566;52.928;10.522;2022-10-16T05:08:33;13.67;;;2.47;;
20810;SDS011;10566;52.928;10.522;2022-10-16T05:10:59;5.33;;;2.10;;
20810;SDS011;10566;52.928;10.522;2022-10-16T05:13:26;5.40;;;2.20;;
20810;SDS011;10566;52.928;10.522;2022-10-16T05:15:52;6.43;;;2.10;;
20810;SDS011;10566;52.928;10.522;2022-10-16T05:18:18;5.20;;;2.07;;
20810;SDS011;10566;52.928;10.522;2022-10-16T05:20:44;6.77;;;2.63;;
20810;SDS011;10566;52.928;10.522;2022-10-16T05:23:10;8.43;;;2.20;;
20810;SDS011;10566;52.928;10.522;2022-10-16T05:25:36;6.90;;;2.30;;
20810;SDS011;10566;52.928;10.522;2022-10-16T05:28:03;10.23;;;2.37;;
20810;SDS011;10566;52.928;10.522;2022-10-16T05:30:29;8.73;;;2.30;;
20810;SDS011;10566;52.928;10.522;2022-10-16T05:32:55;7.10;;;2.40;;
20810;SDS011;10566;52.928;10.522;2022-10-16T05:35:21;5.27;;;2.30;;
20810;SDS011;10566;52.928;10.522;2022-10-16T05:37:47;10.10;;;2.63;;
20810;SDS011;10566;52.928;10.522;2022-10-16T05:40:14;9.90;;;2.77;;
20810;SDS011;10566;52.928;10.522;2022-10-16T05:42:40;10.97;;;2.63;;
20810;SDS011;10566;52.928;10.522;2022-10-16T05:45:07;7.77;;;2.50;;
20810;SDS011;10566;52.928;10.522;2022-10-16T05:47:34;6.60;;;2.37;;
20810;SDS011;10566;52.928;10.522;2022-10-16T05:50:01;7.30;;;2.53;;
20810;SDS011;10566;52.928;10.522;2022-10-16T05:52:29;8.50;;;2.70;;
20810;SDS011;10566;52.928;10.522;2022-10-16T05:54:55;6.67;;;2.40;;
20810;SDS011;10566;52.928;10.522;2022-10-16T05:57:21;9.40;;;2.73;;
20810;SDS011;10566;52.928;10.522;2022-10-16T05:59:47;10.17;;;2.83;;
20810;SDS011;10566;52.928;10.522;2022-10-16T06:02:13;9.63;;;2.93;;
20810;SDS011;10566;52.928;10.522;2022-10-16T06:04:39;8.47;;;2.90;;
20810;SDS011;10566;52.928;10.522;2022-10-16T06:07:05;8.23;;;2.90;;
20810;SDS011;10566;52.928;10.522;2022-10-16T06:09:31;7.67;;;3.07;;
20810;SDS011;10566;52.928;10.522;2022-10-16T06:11:57;5.77;;;2.40;;
20810;SDS011;10566;52.928;10.522;2022-10-16T06:14:23;11.27;;;2.83;;
20810;SDS011;10566;52.928;10.522;2022-10-16T06:16:49;10.77;;;2.77;;
20810;SDS011;10566;52.928;10.522;2022-10-16T06:19:15;8.27;;;2.63;;
20810;SDS011;10566;52.928;10.522;2022-10-16T06:21:42;6.07;;;2.47;;
20810;SDS011;10566;52.928;10.522;2022-10-16T06:24:09;8.07;;;2.63;;
20810;SDS011;10566;52.928;10.522;2022-10-16T06:26:35;6.70;;;2.77;;
20810;SDS011;10566;52.928;10.522;2022-10-16T06:29:01;10.77;;;2.60;;
20810;SDS011;10566;52.928;10.522;2022-10-16T06:31:27;8.83;;;2.73;;
20810;SDS011;10566;52.928;10.522;2022-10-16T06:33:56;9.50;;;2.77;;
20810;SDS011;10566;52.928;10.522;2022-10-16T06:36:22;9.93;;;2.87;;
20810;SDS011;10566;52.928;10.522;2022-10-16T06:38:49;8.63;;;2.87;;
20810;SDS011;10566;52.928;10.522;2022-10-16T06:41:18;7.10;;;2.73;;
20810;SDS011;10566;52.928;10.522;2022-10-16T06:43:44;8.03;;;2.57;;
20810;SDS011;10566;52.928;10.522;2022-10-16T06:46:11;7.27;;;2.67;;
20810;SDS011;10566;52.928;10.522;2022-10-16T06:48:38;8.63;;;2.10;;
20810;SDS011;10566;52.928;10.522;2022-10-16T06:51:06;5.43;;;2.33;;
20810;SDS011;10566;52.928;10.522;2022-10-16T06:53:33;6.50;;;2.00;;
20810;SDS011;10566;52.928;10.522;2022-10-16T06:56:16;6.13;;;2.27;;
20810;SDS011;10566;52.928;10.522;2022-10-16T06:58:43;5.60;;;2.10;;
20810;SDS011;10566;52.928;10.522;2022-10-16T07:01:10;4.17;;;1.83;;
20810;SDS011;10566;52.928;10.522;2022-10-16T07:03:36;5.47;;;2.00;;
20810;SDS011;10566;52.928;10.522;2022-10-16T07:06:03;8.23;;;1.77;;
20810;SDS011;10566;52.928;10.522;2022-10-16T07:08:33;4.83;;;1.80;;
20810;SDS011;10566;52.928;10.522;2022-10-16T07:11:03;4.43;;;1.60;;
20810;SDS011;10566;52.928;10.522;2022-10-16T07:13:32;6.03;;;1.90;;
20810;SDS011;10566;52.928;10.522;2022-10-16T07:16:03;4.83;;;1.60;;
20810;SDS011;10566;52.928;10.522;2022-10-16T07:18:29;6.43;;;2.10;;
20810;SDS011;10566;52.928;10.522;2022-10-16T07:21:02;9.53;;;1.70;;
20810;SDS011;10566;52.928;10.522;2022-10-16T07:23:28;3.35;;;1.25;;
20810;SDS011;10566;52.928;10.522;2022-10-16T07:25:54;8.13;;;1.67;;
20810;SDS011;10566;52.928;10.522;2022-10-16T07:28:20;4.53;;;1.70;;
20810;SDS011;10566;52.928;10.522;2022-10-16T07:30:46;4.53;;;1.83;;
20810;SDS011;10566;52.928;10.522;2022-10-16T07:33:12;6.97;;;1.90;;
20810;SDS011;10566;52.928;10.522;2022-10-16T07:35:46;5.40;;;1.42;;
20810;SDS011;10566;52.928;10.522;2022-10-16T07:38:12;4.20;;;1.75;;
20810;SDS011;10566;52.928;10.522;2022-10-16T07:40:38;3.63;;;1.58;;
20810;SDS011;10566;52.928;10.522;2022-10-16T07:43:04;5.07;;;1.65;;
20810;SDS011;10566;52.928;10.522;2022-10-16T07:45:30;7.10;;;1.70;;
20810;SDS011;10566;52.928;10.522;2022-10-16T07:47:56;5.33;;;1.50;;
20810;SDS011;10566;52.928;10.522;2022-10-16T07:50:22;4.45;;;1.35;;
20810;SDS011;10566;52.928;10.522;2022-10-16T07:52:48;4.88;;;1.58;;
20810;SDS011;10566;52.928;10.522;2022-10-16T07:55:14;5.60;;;1.50;;
20810;SDS011;10566;52.928;10.522;2022-10-16T07:57:40;5.75;;;1.42;;
20810;SDS011;10566;52.928;10.522;2022-10-16T08:00:06;6.20;;;1.40;;
20810;SDS011;10566;52.928;10.522;2022-10-16T08:02:38;3.90;;;1.30;;
20810;SDS011;10566;52.928;10.522;2022-10-16T08:05:04;4.10;;;1.38;;
20810;SDS011;10566;52.928;10.522;2022-10-16T08:07:30;5.43;;;1.50;;
20810;SDS011;10566;52.928;10.522;2022-10-16T08:09:56;5.53;;;1.40;;
20810;SDS011;10566;52.928;10.522;2022-10-16T08:12:23;6.00;;;1.30;;
20810;SDS011;10566;52.928;10.522;2022-10-16T08:14:49;5.28;;;1.48;;
20810;SDS011;10566;52.928;10.522;2022-10-16T08:17:15;5.07;;;1.30;;
20810;SDS011;10566;52.928;10.522;2022-10-16T08:19:45;4.05;;;1.50;;
20810;SDS011;10566;52.928;10.522;2022-10-16T08:22:11;4.68;;;1.30;;
20810;SDS011;10566;52.928;10.522;2022-10-16T08:24:37;6.20;;;1.23;;
20810;SDS011;10566;52.928;10.522;2022-10-16T08:27:03;5.75;;;1.20;;
20810;SDS011;10566;52.928;10.522;2022-10-16T08:29:29;4.82;;;1.17;;
20810;SDS011;10566;52.928;10.522;2022-10-16T08:31:55;6.70;;;1.17;;
20810;SDS011;10566;52.928;10.522;2022-10-16T08:34:21;3.33;;;1.17;;
20810;SDS011;10566;52.928;10.522;2022-10-16T08:36:47;3.45;;;1.20;;
20810;SDS011;10566;52.928;10.522;2022-10-16T08:39:13;5.13;;;1.27;;
20810;SDS011;10566;52.928;10.522;2022-10-16T08:44:47;6.78;;;2.20;;
20810;SDS011;10566;52.928;10.522;2022-10-16T08:49:59;4.20;;;0.93;;
20810;SDS011;10566;52.928;10.522;2022-10-16T08:52:30;4.18;;;1.00;;
20810;SDS011;10566;52.928;10.522;2022-10-16T08:54:57;3.17;;;1.20;;
20810;SDS011;10566;52.928;10.522;2022-10-16T08:57:24;4.95;;;1.10;;
20810;SDS011;10566;52.928;10.522;2022-10-16T08:59:57;3.47;;;1.20;;
20810;SDS011;10566;52.928;10.522;2022-10-16T09:02:35;3.95;;;0.85;;
20810;SDS011;10566;52.928;10.522;2022-10-16T09:05:17;5.90;;;1.20;;
20810;SDS011;10566;52.928;10.522;2022-10-16T09:18:12;2.50;;;0.80;;
20810;SDS011;10566;52.928;10.522;2022-10-16T09:23:26;3.47;;;0.90;;
20810;SDS011;10566;52.928;10.522;2022-10-16T09:25:52;1.80;;;0.90;;
20810;SDS011;10566;52.928;10.522;2022-10-16T09:28:18;5.18;;;0.93;;
20810;SDS011;10566;52.928;10.522;2022-10-16T09:30:45;5.70;;;0.80;;
20810;SDS011;10566;52.928;10.522;2022-10-16T09:33:13;3.78;;;0.98;;
20810;SDS011;10566;52.928;10.522;2022-10-16T09:35:41;2.47;;;0.80;;
20810;SDS011;10566;52.928;10.522;2022-10-16T09:38:08;4.32;;;0.90;;
20810;SDS011;10566;52.928;10.522;2022-10-16T09:40:37;3.72;;;0.90;;
20810;SDS011;10566;52.928;10.522;2022-10-16T09:45:36;2.22;;;0.60;;
20810;SDS011;10566;52.928;10.522;2022-10-16T09:48:10;2.55;;;0.68;;
20810;SDS011;10566;52.928;10.522;2022-10-16T09:50:36;3.85;;;0.70;;
20810;SDS011;10566;52.928;10.522;2022-10-16T09:53:12;4.72;;;1.10;;
20810;SDS011;10566;52.928;10.522;2022-10-16T09:55:48;1.98;;;0.60;;
20810;SDS011;10566;52.928;10.522;2022-10-16T09:58:15;4.05;;;0.85;;
20810;SDS011;10566;52.928;10.522;2022-10-16T10:00:41;1.88;;;0.70;;
20810;SDS011;10566;52.928;10.522;2022-10-16T10:03:11;4.13;;;0.80;;
20810;SDS011;10566;52.928;10.522;2022-10-16T10:05:37;2.38;;;0.68;;
20810;SDS011;10566;52.928;10.522;2022-10-16T10:08:05;5.65;;;0.70;;
20810;SDS011;10566;52.928;10.522;2022-10-16T10:10:33;5.18;;;0.73;;
20810;SDS011;10566;52.928;10.522;2022-10-16T10:13:02;2.53;;;0.60;;
20810;SDS011;10566;52.928;10.522;2022-10-16T10:15:33;3.42;;;0.80;;
20810;SDS011;10566;52.928;10.522;2022-10-16T10:17:59;5.00;;;0.77;;
20810;SDS011;10566;52.928;10.522;2022-10-16T10:22:54;4.55;;;0.82;;
20810;SDS011;10566;52.928;10.522;2022-10-16T10:28:07;4.05;;;0.80;;
20810;SDS011;10566;52.928;10.522;2022-10-16T10:46:36;6.35;;;0.80;;
20810;SDS011;10566;52.928;10.522;2022-10-16T10:54:50;2.13;;;0.55;;
20810;SDS011;10566;52.928;10.522;2022-10-16T10:59:54;3.10;;;0.63;;
20810;SDS011;10566;52.928;10.522;2022-10-16T11:02:36;4.72;;;0.70;;
20810;SDS011;10566;52.928;10.522;2022-10-16T11:07:49;3.13;;;0.70;;
20810;SDS011;10566;52.928;10.522;2022-10-16T11:10:20;2.38;;;0.70;;
20810;SDS011;10566;52.928;10.522;2022-10-16T11:12:48;6.20;;;0.73;;
20810;SDS011;10566;52.928;10.522;2022-10-16T11:15:21;2.35;;;0.50;;
20810;SDS011;10566;52.928;10.522;2022-10-16T11:22:48;2.67;;;0.63;;
20810;SDS011;10566;52.928;10.522;2022-10-16T11:30:33;2.70;;;0.65;;
20810;SDS011;10566;52.928;10.522;2022-10-16T11:37:59;1.75;;;0.60;;
20810;SDS011;10566;52.928;10.522;2022-10-16T11:40:29;2.70;;;0.80;;
20810;SDS011;10566;52.928;10.522;2022-10-16T11:45:46;2.30;;;0.70;;
20810;SDS011;10566;52.928;10.522;2022-10-16T11:48:22;4.75;;;0.75;;
20810;SDS011;10566;52.928;10.522;2022-10-16T11:51:05;4.18;;;0.75;;
20810;SDS011;10566;52.928;10.522;2022-10-16T11:56:01;2.25;;;0.65;;
20810;SDS011;10566;52.928;10.522;2022-10-16T11:58:35;3.00;;;0.60;;
20810;SDS011;10566;52.928;10.522;2022-10-16T12:01:10;2.92;;;0.60;;
20810;SDS011;10566;52.928;10.522;2022-10-16T12:08:36;4.28;;;0.73;;
20810;SDS011;10566;52.928;10.522;2022-10-16T12:11:06;2.65;;;0.50;;
20810;SDS011;10566;52.928;10.522;2022-10-16T12:13:37;3.40;;;0.60;;
20810;SDS011;10566;52.928;10.522;2022-10-16T12:18:38;5.57;;;0.50;;
20810;SDS011;10566;52.928;10.522;2022-10-16T12:21:05;3.55;;;0.65;;
20810;SDS011;10566;52.928;10.522;2022-10-16T12:26:26;5.15;;;0.70;;
20810;SDS011;10566;52.928;10.522;2022-10-16T12:28:53;5.68;;;1.05;;
20810;SDS011;10566;52.928;10.522;2022-10-16T12:31:20;4.53;;;0.80;;
20810;SDS011;10566;52.928;10.522;2022-10-16T12:33:56;3.78;;;0.70;;
20810;SDS011;10566;52.928;10.522;2022-10-16T12:36:29;3.85;;;0.70;;
20810;SDS011;10566;52.928;10.522;2022-10-16T12:38:56;4.75;;;1.00;;
20810;SDS011;10566;52.928;10.522;2022-10-16T12:43:52;3.92;;;0.68;;
20810;SDS011;10566;52.928;10.522;2022-10-16T12:48:44;5.97;;;1.00;;
20810;SDS011;10566;52.928;10.522;2022-10-16T12:54:00;4.65;;;0.85;;
20810;SDS011;10566;52.928;10.522;2022-10-16T12:56:29;6.03;;;0.90;;
20810;SDS011;10566;52.928;10.522;2022-10-16T12:59:09;4.10;;;0.80;;
20810;SDS011;10566;52.928;10.522;2022-10-16T13:14:54;4.72;;;1.45;;
20810;SDS011;10566;52.928;10.522;2022-10-16T13:17:11;3.90;;;0.75;;
20810;SDS011;10566;52.928;10.522;2022-10-16T13:22:14;3.70;;;0.88;;
20810;SDS011;10566;52.928;10.522;2022-10-16T13:24:48;3.40;;;0.90;;
20810;SDS011;10566;52.928;10.522;2022-10-16T13:27:35;5.35;;;1.20;;
20810;SDS011;10566;52.928;10.522;2022-10-16T13:32:36;3.53;;;1.15;;
20810;SDS011;10566;52.928;10.522;2022-10-16T13:35:02;4.22;;;0.82;;
20810;SDS011;10566;52.928;10.522;2022-10-16T13:37:29;4.63;;;0.80;;
20810;SDS011;10566;52.928;10.522;2022-10-16T13:40:09;5.80;;;1.13;;
20810;SDS011;10566;52.928;10.522;2022-10-16T13:42:43;4.28;;;1.10;;
20810;SDS011;10566;52.928;10.522;2022-10-16T13:45:19;6.43;;;0.90;;
20810;SDS011;10566;52.928;10.522;2022-10-16T13:47:46;5.55;;;0.90;;
20810;SDS011;10566;52.928;10.522;2022-10-16T13:50:13;4.00;;;0.93;;
20810;SDS011;10566;52.928;10.522;2022-10-16T13:52:39;4.30;;;0.90;;
20810;SDS011;10566;52.928;10.522;2022-10-16T13:55:12;2.83;;;0.70;;
20810;SDS011;10566;52.928;10.522;2022-10-16T13:57:39;4.55;;;0.80;;
20810;SDS011;10566;52.928;10.522;2022-10-16T14:00:18;3.53;;;0.95;;
20810;SDS011;10566;52.928;10.522;2022-10-16T14:02:44;3.03;;;0.80;;
20810;SDS011;10566;52.928;10.522;2022-10-16T14:05:11;3.17;;;0.80;;
20810;SDS011;10566;52.928;10.522;2022-10-16T14:07:39;4.72;;;1.00;;
20810;SDS011;10566;52.928;10.522;2022-10-16T14:10:07;4.35;;;0.85;;
20810;SDS011;10566;52.928;10.522;2022-10-16T14:12:43;3.55;;;0.90;;
20810;SDS011;10566;52.928;10.522;2022-10-16T14:15:16;3.83;;;0.90;;
20810;SDS011;10566;52.928;10.522;2022-10-16T14:17:43;3.55;;;1.27;;
20810;SDS011;10566;52.928;10.522;2022-10-16T14:20:14;3.38;;;0.88;;
20810;SDS011;10566;52.928;10.522;2022-10-16T14:22:41;3.63;;;1.00;;
20810;SDS011;10566;52.928;10.522;2022-10-16T14:27:57;3.85;;;0.80;;
20810;SDS011;10566;52.928;10.522;2022-10-16T14:30:25;3.13;;;0.65;;
20810;SDS011;10566;52.928;10.522;2022-10-16T14:37:56;4.90;;;0.80;;
20810;SDS011;10566;52.928;10.522;2022-10-16T14:40:23;4.10;;;1.05;;
20810;SDS011;10566;52.928;10.522;2022-10-16T14:42:50;5.70;;;1.15;;
20810;SDS011;10566;52.928;10.522;2022-10-16T14:45:20;3.13;;;0.70;;
20810;SDS011;10566;52.928;10.522;2022-10-16T14:47:48;4.30;;;0.82;;
20810;SDS011;10566;52.928;10.522;2022-10-16T14:50:15;5.45;;;0.90;;
20810;SDS011;10566;52.928;10.522;2022-10-16T14:52:41;4.72;;;0.82;;
20810;SDS011;10566;52.928;10.522;2022-10-16T14:55:08;4.75;;;0.80;;
20810;SDS011;10566;52.928;10.522;2022-10-16T14:57:34;4.80;;;0.73;;
20810;SDS011;10566;52.928;10.522;2022-10-16T15:00:01;6.03;;;1.65;;
20810;SDS011;10566;52.928;10.522;2022-10-16T15:02:31;4.78;;;1.00;;
20810;SDS011;10566;52.928;10.522;2022-10-16T15:04:57;3.17;;;0.77;;
20810;SDS011;10566;52.928;10.522;2022-10-16T15:07:24;4.47;;;0.95;;
20810;SDS011;10566;52.928;10.522;2022-10-16T15:09:50;6.07;;;0.90;;
20810;SDS011;10566;52.928;10.522;2022-10-16T15:12:16;3.92;;;0.77;;
20810;SDS011;10566;52.928;10.522;2022-10-16T15:14:43;5.93;;;0.82;;
20810;SDS011;10566;52.928;10.522;2022-10-16T15:17:10;3.47;;;1.00;;
20810;SDS011;10566;52.928;10.522;2022-10-16T15:19:36;6.07;;;1.00;;
20810;SDS011;10566;52.928;10.522;2022-10-16T15:22:02;6.30;;;1.20;;
20810;SDS011;10566;52.928;10.522;2022-10-16T15:24:28;4.60;;;0.90;;
20810;SDS011;10566;52.928;10.522;2022-10-16T15:26:55;4.40;;;0.90;;
20810;SDS011;10566;52.928;10.522;2022-10-16T15:29:21;3.75;;;0.80;;
20810;SDS011;10566;52.928;10.522;2022-10-16T15:31:47;2.33;;;0.88;;
20810;SDS011;10566;52.928;10.522;2022-10-16T15:34:13;4.88;;;0.90;;
20810;SDS011;10566;52.928;10.522;2022-10-16T15:36:39;4.25;;;1.10;;
20810;SDS011;10566;52.928;10.522;2022-10-16T15:39:10;5.43;;;1.23;;
20810;SDS011;10566;52.928;10.522;2022-10-16T15:41:37;10.43;;;3.03;;
20810;SDS011;10566;52.928;10.522;2022-10-16T15:44:03;6.97;;;2.40;;
20810;SDS011;10566;52.928;10.522;2022-10-16T15:46:29;4.15;;;1.20;;
20810;SDS011;10566;52.928;10.522;2022-10-16T15:48:57;8.00;;;1.65;;
20810;SDS011;10566;52.928;10.522;2022-10-16T15:51:23;5.45;;;1.23;;
20810;SDS011;10566;52.928;10.522;2022-10-16T15:53:51;5.05;;;1.13;;
20810;SDS011;10566;52.928;10.522;2022-10-16T15:56:17;4.78;;;1.20;;
20810;SDS011;10566;52.928;10.522;2022-10-16T15:58:44;4.63;;;1.20;;
20810;SDS011;10566;52.928;10.522;2022-10-16T16:01:10;5.75;;;1.13;;
20810;SDS011;10566;52.928;10.522;2022-10-16T16:03:37;3.00;;;1.00;;
20810;SDS011;10566;52.928;10.522;2022-10-16T16:06:06;5.88;;;1.10;;
20810;SDS011;10566;52.928;10.522;2022-10-16T16:08:33;5.95;;;1.10;;
20810;SDS011;10566;52.928;10.522;2022-10-16T16:11:06;5.63;;;1.17;;
20810;SDS011;10566;52.928;10.522;2022-10-16T16:13:32;7.25;;;1.40;;
20810;SDS011;10566;52.928;10.522;2022-10-16T16:15:59;4.32;;;1.25;;
20810;SDS011;10566;52.928;10.522;2022-10-16T16:18:25;6.13;;;1.10;;
20810;SDS011;10566;52.928;10.522;2022-10-16T16:20:51;6.03;;;1.08;;
20810;SDS011;10566;52.928;10.522;2022-10-16T16:23:17;4.55;;;1.30;;
20810;SDS011;10566;52.928;10.522;2022-10-16T16:25:44;4.75;;;1.23;;
20810;SDS011;10566;52.928;10.522;2022-10-16T16:28:10;7.38;;;1.70;;
20810;SDS011;10566;52.928;10.522;2022-10-16T16:30:39;4.82;;;1.30;;
20810;SDS011;10566;52.928;10.522;2022-10-16T16:33:05;8.15;;;1.75;;
20810;SDS011;10566;52.928;10.522;2022-10-16T16:35:31;7.53;;;2.22;;
20810;SDS011;10566;52.928;10.522;2022-10-16T16:37:57;5.90;;;2.22;;
20810;SDS011;10566;52.928;10.522;2022-10-16T16:40:23;10.38;;;1.65;;
20810;SDS011;10566;52.928;10.522;2022-10-16T16:42:49;5.32;;;1.70;;
20810;SDS011;10566;52.928;10.522;2022-10-16T16:45:15;5.55;;;1.50;;